Airfield :
LOGIN :

Register | Disclaimer

   EN    FR    IT 

 










Legend :    VFR   Marginal VFR   IFR   Intensive IFR   Very Intensive IFR
Visi :
Ceiling :
>= 8 km
>= 3000ft
5 to 8 km
1000 to 3000 ft
1500m to 5 km
500 to 1000 ft
800 to 1500m
200 to 500 ft
< 800m
< 200 ft
Symbols :   Thunderstorms  Fog  Heavy snow  Heavy precipitations  Wind > 20 kt
SIGMETs :     Misc.  Thunderstorms  Icing  Turbulence  Mountain Waves  Volcanic Ashes






- Airport Elevation : 400 ft
- IATA code : BNX


LQBK - Banja Luka

CURRENT METAR :
  • 281430Z 01008KT 9999 SCT037 20/11 Q1020 NOSIG

EXPIRED METARs :
  • 281400Z 29006KT 9999 SCT037 22/11 Q1020 NOSIG
  • 281330Z 28009KT 9999 FEW033TCU SCT035 22/10 1020 NOSIG
  • 281300Z 35009KT 9999 SCT035 21/10 Q1021 NOSIG
  • 281230Z 33010KT 9999 SCT035 21/10 Q1021 NOSIG
  • 281200Z 33010KT 9999 SCT033 21/10 Q1021 NOSIG

TAF COR TAF LQBK
Valid from the 28 at 12:00 until the 29 at 12:00 UTC


281100Z 2812/2912 28005KT 9999 SCT035 TX21/2813Z TN12/2904Z
TEMPO 2812/2816 34012KT
PROB40
TEMPO 2822/2912 SHRA FEW035TCU BKN040



MET'MAP, your aeronautical weather chart ! - Copyright ORBIFLY December 2007 - Disclaimer

ORBIFLY MET'MAP TEAM :

Programming & Development : Alexandra Zaïnal
Concept & original design : Baudouin d'Aumeries
Assistance for programming : Marc-Olivier Méhu
Technical & hardware support : Manuel Goepfert

Contact : metmap@orbifly.com




SOURCES & CREDITS :

   NOAA